Time;durP1;ratioP1;P1;durP2;ratioP2;P2;SDS_P1;SDS_P2;PMS_P1;PMS_P2;Temp;Humidity;BMP_temperature;BMP_pressure;BME280_temperature;BME280_humidity;BME280_pressure;Samples;Min_cycle;Max_cycle;Signal;HPM_P1;HPM_P2
2021/01/07 00:06:17;;;;;;;15.40;10.85;;;;;;;;;;4176319;34;20148;-60
2021/01/07 00:08:43;;;;;;;14.70;10.88;;;;;;;;;;4178750;34;20098;-60
2021/01/07 00:11:10;;;;;;;15.02;11.38;;;;;;;;;;4165584;34;20443;-60
2021/01/07 00:13:36;;;;;;;14.40;11.12;;;;;;;;;;4158324;34;20138;-60
2021/01/07 00:16:02;;;;;;;13.05;10.13;;;;;;;;;;4178338;34;20594;-60
2021/01/07 00:18:28;;;;;;;16.42;10.65;;;;;;;;;;4178463;34;20106;-59
2021/01/07 00:20:54;;;;;;;12.80;10.13;;;;;;;;;;4178362;34;20457;-60
2021/01/07 00:23:20;;;;;;;14.32;10.50;;;;;;;;;;4165028;34;20122;-60
2021/01/07 00:25:50;;;;;;;16.02;11.25;;;;;;;;;;4164677;34;20211;-60
2021/01/07 00:28:17;;;;;;;15.55;11.10;;;;;;;;;;4164732;34;20132;-60
2021/01/07 00:30:44;;;;;;;15.05;11.35;;;;;;;;;;4164603;34;20412;-60
2021/01/07 00:33:10;;;;;;;16.58;11.63;;;;;;;;;;4164969;34;20091;-59
2021/01/07 00:35:36;;;;;;;16.08;11.45;;;;;;;;;;4164832;34;20494;-60
2021/01/07 00:38:03;;;;;;;15.50;10.88;;;;;;;;;;4164873;34;20087;-59
2021/01/07 00:40:29;;;;;;;13.27;11.05;;;;;;;;;;4177800;34;20212;-60
2021/01/07 00:42:55;;;;;;;15.90;11.65;;;;;;;;;;4178166;34;20538;-62
2021/01/07 00:45:21;;;;;;;14.65;11.15;;;;;;;;;;4178401;34;20133;-60
2021/01/07 00:47:47;;;;;;;13.50;10.52;;;;;;;;;;4178251;34;20145;-60
2021/01/07 00:50:13;;;;;;;20.27;14.15;;;;;;;;;;4178346;34;20125;-59
2021/01/07 00:52:40;;;;;;;17.00;11.85;;;;;;;;;;4178197;34;20170;-60
2021/01/07 00:55:07;;;;;;;14.45;11.93;;;;;;;;;;4165299;34;20134;-60
2021/01/07 00:57:33;;;;;;;15.57;12.02;;;;;;;;;;4178413;34;20423;-60
2021/01/07 00:59:59;;;;;;;16.62;12.68;;;;;;;;;;4178038;34;20202;-62
2021/01/07 01:02:25;;;;;;;16.17;12.02;;;;;;;;;;4178432;34;20109;-60
2021/01/07 01:04:51;;;;;;;15.75;11.73;;;;;;;;;;4177908;34;20602;-60
2021/01/07 01:07:17;;;;;;;16.05;12.85;;;;;;;;;;4178054;34;20567;-60
2021/01/07 01:09:43;;;;;;;16.98;12.50;;;;;;;;;;4165655;34;20106;-60
2021/01/07 01:12:09;;;;;;;17.77;12.85;;;;;;;;;;4165341;34;20198;-60
2021/01/07 01:14:35;;;;;;;19.33;12.85;;;;;;;;;;4177837;34;20126;-60
2021/01/07 01:17:01;;;;;;;21.20;13.68;;;;;;;;;;4177899;34;20145;-60
2021/01/07 01:19:27;;;;;;;16.55;12.25;;;;;;;;;;4177993;34;20114;-60
2021/01/07 01:21:53;;;;;;;15.70;12.75;;;;;;;;;;4177949;34;20454;-61
2021/01/07 01:24:19;;;;;;;19.35;13.25;;;;;;;;;;4178111;34;20287;-60
2021/01/07 01:26:46;;;;;;;22.17;14.32;;;;;;;;;;4178160;34;20414;-61
2021/01/07 01:29:12;;;;;;;21.42;13.10;;;;;;;;;;4177908;34;20185;-60
2021/01/07 01:31:38;;;;;;;20.58;13.23;;;;;;;;;;4165557;34;21031;-60
2021/01/07 01:34:05;;;;;;;17.87;13.77;;;;;;;;;;4177784;34;20114;-61
2021/01/07 01:36:31;;;;;;;17.33;13.52;;;;;;;;;;4177317;34;20112;-60
2021/01/07 01:38:57;;;;;;;23.50;14.98;;;;;;;;;;4177865;34;20114;-61
2021/01/07 01:41:23;;;;;;;20.90;14.68;;;;;;;;;;4177884;34;20082;-61
2021/01/07 01:43:49;;;;;;;18.58;13.95;;;;;;;;;;4177947;34;20130;-61
2021/01/07 01:46:15;;;;;;;20.17;13.10;;;;;;;;;;4178006;34;20130;-61
2021/01/07 01:48:41;;;;;;;18.83;12.82;;;;;;;;;;4177636;34;20122;-61
2021/01/07 01:51:10;;;;;;;22.13;12.90;;;;;;;;;;4165005;34;20480;-61
2021/01/07 01:53:36;;;;;;;21.48;13.55;;;;;;;;;;4154027;34;20112;-61
2021/01/07 01:56:04;;;;;;;20.17;13.27;;;;;;;;;;4165026;34;20446;-60
2021/01/07 01:58:30;;;;;;;16.90;12.02;;;;;;;;;;4177882;34;20193;-61
2021/01/07 02:00:56;;;;;;;18.95;12.45;;;;;;;;;;4177552;34;20498;-60
2021/01/07 02:03:21;;;;;;;16.98;11.57;;;;;;;;;;4164851;34;20126;-60
2021/01/07 02:05:47;;;;;;;15.63;11.55;;;;;;;;;;4177425;34;20113;-61
2021/01/07 02:08:14;;;;;;;16.83;11.10;;;;;;;;;;4177406;34;20513;-61
2021/01/07 02:10:40;;;;;;;15.77;10.32;;;;;;;;;;4177458;34;20125;-61
2021/01/07 02:13:06;;;;;;;14.45;9.90;;;;;;;;;;4164758;34;20189;-61
2021/01/07 02:15:40;;;;;;;14.13;10.35;;;;;;;;;;4164676;34;20114;-61
2021/01/07 02:18:10;;;;;;;15.05;10.18;;;;;;;;;;4177474;34;20194;-61
2021/01/07 02:20:39;;;;;;;14.25;9.88;;;;;;;;;;4177399;34;20117;-61
2021/01/07 02:23:05;;;;;;;13.43;9.55;;;;;;;;;;4177495;34;20195;-61
2021/01/07 02:25:31;;;;;;;13.95;10.00;;;;;;;;;;4177414;34;20106;-61
2021/01/07 02:27:57;;;;;;;15.52;10.82;;;;;;;;;;4177333;34;20507;-61
2021/01/07 02:30:23;;;;;;;15.43;10.02;;;;;;;;;;4177464;34;20198;-61
2021/01/07 02:32:49;;;;;;;14.38;9.55;;;;;;;;;;4164938;34;20122;-61
2021/01/07 02:35:15;;;;;;;12.98;9.35;;;;;;;;;;4177255;34;20474;-61
2021/01/07 02:37:45;;;;;;;15.02;9.25;;;;;;;;;;4177298;34;20691;-61
2021/01/07 02:40:12;;;;;;;15.40;9.38;;;;;;;;;;4177412;34;20148;-61
2021/01/07 02:42:38;;;;;;;12.77;9.00;;;;;;;;;;4177168;34;20090;-62
2021/01/07 02:45:08;;;;;;;12.75;8.98;;;;;;;;;;4164594;34;20213;-61
2021/01/07 02:47:35;;;;;;;12.23;9.13;;;;;;;;;;4164534;34;20103;-60
2021/01/07 02:50:02;;;;;;;14.82;8.80;;;;;;;;;;4177146;34;20529;-60
2021/01/07 02:52:28;;;;;;;10.90;8.57;;;;;;;;;;4177165;34;20125;-60
2021/01/07 02:54:53;;;;;;;17.35;9.40;;;;;;;;;;4177018;34;20129;-60
2021/01/07 02:57:19;;;;;;;10.55;8.68;;;;;;;;;;4177159;34;20157;-60
2021/01/07 02:59:45;;;;;;;14.68;9.57;;;;;;;;;;4177112;34;20103;-60
2021/01/07 03:02:11;;;;;;;13.02;8.90;;;;;;;;;;4177133;34;20515;-61
2021/01/07 03:04:37;;;;;;;15.10;8.35;;;;;;;;;;4176762;34;20214;-61
2021/01/07 03:07:03;;;;;;;12.30;8.65;;;;;;;;;;4177174;34;20118;-61
2021/01/07 03:09:29;;;;;;;16.45;10.73;;;;;;;;;;4164450;34;20118;-61
2021/01/07 03:11:55;;;;;;;14.95;8.80;;;;;;;;;;4177156;34;20469;-60
2021/01/07 03:14:21;;;;;;;11.85;8.15;;;;;;;;;;4164015;34;20192;-60
2021/01/07 03:16:47;;;;;;;13.40;9.57;;;;;;;;;;4176791;34;20134;-60
2021/01/07 03:19:13;;;;;;;14.95;8.63;;;;;;;;;;4164160;34;20117;-60
2021/01/07 03:21:41;;;;;;;13.68;8.90;;;;;;;;;;4176822;34;20194;-61
2021/01/07 03:24:10;;;;;;;11.90;8.38;;;;;;;;;;4176851;34;20094;-60
2021/01/07 03:26:36;;;;;;;12.35;8.55;;;;;;;;;;4176880;34;20114;-60
2021/01/07 03:29:03;;;;;;;12.85;9.32;;;;;;;;;;4176621;34;20594;-60
2021/01/07 03:31:29;;;;;;;16.37;9.02;;;;;;;;;;4176836;34;20199;-60
2021/01/07 03:33:55;;;;;;;11.77;8.65;;;;;;;;;;4164286;34;20094;-60
2021/01/07 03:36:21;;;;;;;12.48;8.15;;;;;;;;;;4176650;34;20185;-61
2021/01/07 03:38:47;;;;;;;12.50;8.70;;;;;;;;;;4176635;34;20186;-61
2021/01/07 03:41:13;;;;;;;12.77;9.63;;;;;;;;;;4176681;34;20542;-61
2021/01/07 03:43:39;;;;;;;14.90;9.43;;;;;;;;;;4176556;34;20121;-61
2021/01/07 03:46:05;;;;;;;13.80;9.52;;;;;;;;;;4176501;34;20208;-61
2021/01/07 03:48:30;;;;;;;17.62;10.52;;;;;;;;;;4176623;34;20115;-61
2021/01/07 03:50:56;;;;;;;17.60;11.00;;;;;;;;;;4176486;34;20189;-61
2021/01/07 03:53:22;;;;;;;13.02;10.48;;;;;;;;;;4176829;34;20110;-61
2021/01/07 03:55:48;;;;;;;15.85;10.35;;;;;;;;;;4176396;34;20124;-61
2021/01/07 03:58:14;;;;;;;15.68;9.82;;;;;;;;;;4176820;34;20138;-61
2021/01/07 04:00:40;;;;;;;17.17;10.80;;;;;;;;;;4178592;34;20601;-60
2021/01/07 04:03:06;;;;;;;17.87;11.55;;;;;;;;;;4178545;34;20649;-61
2021/01/07 04:05:31;;;;;;;16.08;10.95;;;;;;;;;;4165941;34;20098;-61
2021/01/07 04:07:57;;;;;;;19.70;11.65;;;;;;;;;;4178661;34;20114;-61
2021/01/07 04:10:23;;;;;;;15.25;10.55;;;;;;;;;;4178780;34;20114;-61
2021/01/07 04:12:49;;;;;;;13.30;9.80;;;;;;;;;;4178815;34;20458;-61
2021/01/07 04:15:15;;;;;;;14.00;9.75;;;;;;;;;;4178526;34;20122;-61
2021/01/07 04:17:41;;;;;;;12.15;9.98;;;;;;;;;;4178696;34;20141;-62
2021/01/07 04:20:07;;;;;;;14.00;9.52;;;;;;;;;;4178579;34;20114;-61
2021/01/07 04:22:38;;;;;;;18.25;10.90;;;;;;;;;;4178365;34;20238;-61
2021/01/07 04:25:04;;;;;;;12.77;8.98;;;;;;;;;;4178297;34;20646;-62
2021/01/07 04:27:30;;;;;;;13.20;8.60;;;;;;;;;;4178496;34;20130;-61
2021/01/07 04:29:56;;;;;;;12.30;8.82;;;;;;;;;;4178268;34;20121;-61
2021/01/07 04:32:21;;;;;;;12.85;8.95;;;;;;;;;;4178467;34;20443;-61
2021/01/07 04:34:47;;;;;;;14.13;8.80;;;;;;;;;;4178175;34;20676;-61
2021/01/07 04:37:13;;;;;;;12.15;8.98;;;;;;;;;;4178350;34;20101;-62
2021/01/07 04:39:39;;;;;;;14.70;9.43;;;;;;;;;;4165405;34;20145;-62
2021/01/07 04:42:05;;;;;;;16.35;8.45;;;;;;;;;;4178311;34;20544;-61
2021/01/07 04:44:31;;;;;;;12.60;9.15;;;;;;;;;;4178245;34;20230;-61
2021/01/07 04:47:00;;;;;;;14.85;9.30;;;;;;;;;;4165573;34;20539;-61
2021/01/07 04:49:26;;;;;;;17.40;9.18;;;;;;;;;;4165744;34;20129;-61
2021/01/07 04:51:52;;;;;;;12.35;8.63;;;;;;;;;;4165482;34;20499;-61
2021/01/07 04:54:18;;;;;;;14.30;9.10;;;;;;;;;;4178343;34;20126;-62
2021/01/07 04:56:44;;;;;;;17.25;9.80;;;;;;;;;;4165325;34;20115;-62
2021/01/07 04:59:10;;;;;;;14.25;8.90;;;;;;;;;;4165289;34;20136;-62
2021/01/07 05:01:36;;;;;;;18.08;9.25;;;;;;;;;;4165596;34;20136;-62
2021/01/07 05:04:02;;;;;;;14.02;9.43;;;;;;;;;;4165215;34;20149;-62
2021/01/07 05:06:28;;;;;;;18.55;8.70;;;;;;;;;;4165277;34;20137;-62
2021/01/07 05:09:01;;;;;;;15.02;8.63;;;;;;;;;;4177861;34;20169;-61
2021/01/07 05:11:30;;;;;;;16.62;9.32;;;;;;;;;;4177995;34;20125;-62
2021/01/07 05:14:04;;;;;;;20.70;9.13;;;;;;;;;;4165277;34;20201;-62
2021/01/07 05:16:30;;;;;;;14.00;8.43;;;;;;;;;;4165273;34;20214;-62
2021/01/07 05:18:56;;;;;;;14.32;8.15;;;;;;;;;;4178051;34;20122;-62
2021/01/07 05:21:26;;;;;;;10.32;8.10;;;;;;;;;;4154465;34;20534;-62
2021/01/07 05:23:52;;;;;;;15.10;8.63;;;;;;;;;;4177870;34;20106;-62
2021/01/07 05:26:19;;;;;;;13.98;8.75;;;;;;;;;;4177979;34;20522;-61
2021/01/07 05:28:46;;;;;;;11.40;8.60;;;;;;;;;;4178080;34;20137;-60
2021/01/07 05:31:12;;;;;;;15.98;8.07;;;;;;;;;;4177843;34;20144;-61
2021/01/07 05:33:39;;;;;;;14.20;8.15;;;;;;;;;;4165076;34;20522;-61
2021/01/07 05:36:35;;;;;;;13.82;8.85;;;;;;;;;;4165296;34;20090;-62
2021/01/07 05:39:05;;;;;;;14.10;9.38;;;;;;;;;;4153479;34;20535;-61
2021/01/07 05:41:32;;;;;;;13.20;8.40;;;;;;;;;;4165399;34;20129;-61
2021/01/07 05:43:58;;;;;;;14.87;8.07;;;;;;;;;;4177760;34;20186;-62
2021/01/07 05:46:24;;;;;;;14.87;8.30;;;;;;;;;;4177759;34;20447;-61
2021/01/07 05:48:54;;;;;;;13.15;8.02;;;;;;;;;;4177676;34;20496;-61
2021/01/07 05:51:23;;;;;;;20.95;8.90;;;;;;;;;;4165081;34;20219;-61
2021/01/07 05:53:50;;;;;;;11.68;7.62;;;;;;;;;;4164941;34;20098;-61
2021/01/07 05:56:19;;;;;;;12.40;7.85;;;;;;;;;;4165005;34;20214;-61
2021/01/07 05:58:46;;;;;;;11.02;7.50;;;;;;;;;;4177767;34;20212;-61
2021/01/07 06:01:12;;;;;;;14.60;8.48;;;;;;;;;;4165096;34;20130;-61
2021/01/07 06:03:38;;;;;;;13.50;8.18;;;;;;;;;;4164892;34;20156;-63
2021/01/07 06:06:04;;;;;;;13.70;8.68;;;;;;;;;;4162452;34;20115;-62
2021/01/07 06:08:30;;;;;;;15.20;7.82;;;;;;;;;;4164053;34;20111;-62
2021/01/07 06:10:56;;;;;;;11.63;8.32;;;;;;;;;;4163829;34;20102;-64
2021/01/07 06:13:23;;;;;;;12.85;8.02;;;;;;;;;;4162570;34;20186;-61
2021/01/07 06:15:49;;;;;;;12.93;9.10;;;;;;;;;;4163735;34;20158;-61
2021/01/07 06:18:16;;;;;;;14.30;9.57;;;;;;;;;;4162714;34;20130;-61
2021/01/07 06:20:42;;;;;;;13.18;9.43;;;;;;;;;;4163291;34;20123;-61
2021/01/07 06:23:18;;;;;;;17.90;7.97;;;;;;;;;;4162295;34;20491;-61
2021/01/07 06:25:43;;;;;;;12.30;8.93;;;;;;;;;;4162308;34;20146;-62
2021/01/07 06:28:24;;;;;;;20.50;9.13;;;;;;;;;;4162235;34;20115;-61
2021/01/07 06:30:50;;;;;;;18.15;9.38;;;;;;;;;;4163485;34;20125;-61
2021/01/07 06:33:16;;;;;;;16.30;9.43;;;;;;;;;;4150986;34;20142;-61
2021/01/07 06:35:43;;;;;;;14.07;9.23;;;;;;;;;;4162212;34;20282;-61
2021/01/07 06:38:12;;;;;;;14.15;9.45;;;;;;;;;;4163624;34;20118;-62
2021/01/07 06:40:41;;;;;;;14.82;9.30;;;;;;;;;;4163547;34;20107;-61
2021/01/07 06:43:14;;;;;;;14.35;8.88;;;;;;;;;;4163600;34;20103;-61
2021/01/07 06:45:48;;;;;;;16.45;10.07;;;;;;;;;;4163513;34;20097;-62
2021/01/07 06:48:14;;;;;;;16.12;9.73;;;;;;;;;;4162457;34;20580;-62
2021/01/07 06:50:40;;;;;;;16.52;9.57;;;;;;;;;;4161831;34;20107;-62
2021/01/07 06:53:06;;;;;;;12.20;8.88;;;;;;;;;;4162139;34;20083;-62
2021/01/07 06:55:32;;;;;;;12.75;9.55;;;;;;;;;;4161968;34;20105;-62
2021/01/07 06:57:58;;;;;;;13.48;8.88;;;;;;;;;;4163373;34;20495;-62
2021/01/07 07:00:27;;;;;;;12.10;8.70;;;;;;;;;;4161878;34;20127;-62
2021/01/07 07:03:03;;;;;;;18.42;9.73;;;;;;;;;;4163330;34;20113;-62
2021/01/07 07:05:38;;;;;;;;;;;;;;;;;;4172247;34;20142;-62
2021/01/07 07:08:21;;;;;;;14.77;10.00;;;;;;;;;;4176878;34;20314;-63
2021/01/07 07:10:54;;;;;;;21.85;12.73;;;;;;;;;;4163960;34;20122;-62
2021/01/07 07:13:21;;;;;;;25.12;12.63;;;;;;;;;;4164130;34;20592;-62
2021/01/07 07:15:48;;;;;;;20.55;13.25;;;;;;;;;;4164137;34;20555;-63
2021/01/07 07:18:32;;;;;;;21.48;13.95;;;;;;;;;;4176893;34;20103;-62
2021/01/07 07:20:57;;;;;;;21.75;14.32;;;;;;;;;;4164168;34;20137;-61
2021/01/07 07:23:24;;;;;;;16.77;12.02;;;;;;;;;;4176837;34;20126;-62
2021/01/07 07:25:53;;;;;;;12.80;10.25;;;;;;;;;;4176919;34;20122;-62
2021/01/07 07:28:24;;;;;;;12.65;9.60;;;;;;;;;;4176996;34;20199;-62
2021/01/07 07:30:50;;;;;;;14.70;9.80;;;;;;;;;;4176687;34;20232;-62
2021/01/07 07:33:40;;;;;;;14.95;10.60;;;;;;;;;;4177937;34;20630;-61
2021/01/07 07:36:10;;;;;;;14.38;10.32;;;;;;;;;;4178736;34;20102;-61
2021/01/07 07:38:40;;;;;;;15.85;11.05;;;;;;;;;;4178827;34;20198;-63
2021/01/07 07:41:10;;;;;;;13.18;10.10;;;;;;;;;;4178953;34;20122;-63
2021/01/07 07:43:36;;;;;;;20.67;11.52;;;;;;;;;;4178957;34;20186;-63
2021/01/07 07:46:03;;;;;;;17.87;10.68;;;;;;;;;;4178572;34;20457;-60
2021/01/07 07:48:30;;;;;;;13.75;9.63;;;;;;;;;;4178701;34;20293;-62
2021/01/07 07:51:18;;;;;;;16.42;10.13;;;;;;;;;;4178566;34;20535;-62
2021/01/07 07:53:47;;;;;;;13.10;9.90;;;;;;;;;;4178779;34;20118;-63
2021/01/07 07:56:25;;;;;;;13.68;9.82;;;;;;;;;;4178518;34;20557;-63
2021/01/07 07:59:01;;;;;;;15.75;10.52;;;;;;;;;;4171596;34;20099;-63
2021/01/07 08:01:49;;;;;;;15.15;9.73;;;;;;;;;;4169375;34;20102;-63
2021/01/07 08:04:19;;;;;;;16.77;8.93;;;;;;;;;;4178339;34;20122;-61
2021/01/07 08:06:45;;;;;;;13.25;8.52;;;;;;;;;;4168268;34;20106;-61
2021/01/07 08:09:13;;;;;;;12.65;8.70;;;;;;;;;;4164754;34;20220;-64
2021/01/07 08:11:43;;;;;;;13.90;9.52;;;;;;;;;;4165008;34;20534;-61
2021/01/07 08:14:10;;;;;;;17.05;8.88;;;;;;;;;;4168637;34;20137;-61
2021/01/07 08:16:37;;;;;;;13.05;10.32;;;;;;;;;;4178656;34;20171;-62
2021/01/07 08:19:14;;;;;;;10.70;7.62;;;;;;;;;;4178281;34;20121;-62
2021/01/07 08:21:47;;;;;;;13.00;8.80;;;;;;;;;;4178403;34;20130;-62
2021/01/07 08:24:14;;;;;;;9.98;7.70;;;;;;;;;;4165613;34;20448;-62
2021/01/07 08:26:40;;;;;;;13.27;7.47;;;;;;;;;;4178327;34;20471;-60
2021/01/07 08:29:08;;;;;;;11.38;7.55;;;;;;;;;;4154297;34;20463;-62
2021/01/07 08:31:34;;;;;;;14.10;8.43;;;;;;;;;;4159656;34;20133;-63
2021/01/07 08:34:00;;;;;;;11.25;7.97;;;;;;;;;;4152294;34;20644;-62
2021/01/07 08:36:26;;;;;;;13.88;8.57;;;;;;;;;;4141031;34;20114;-62
2021/01/07 08:38:52;;;;;;;14.23;7.97;;;;;;;;;;4140595;34;20122;-62
2021/01/07 08:41:27;;;;;;;11.77;8.30;;;;;;;;;;4164535;34;20214;-62
2021/01/07 08:43:57;;;;;;;11.98;7.57;;;;;;;;;;4152272;34;20126;-62
2021/01/07 08:46:24;;;;;;;10.90;7.78;;;;;;;;;;4152127;34;20133;-62
2021/01/07 08:49:04;;;;;;;9.32;7.07;;;;;;;;;;4164510;34;20087;-62
2021/01/07 08:51:38;;;;;;;12.75;7.25;;;;;;;;;;4164563;34;20201;-61
2021/01/07 08:54:24;;;;;;;9.57;6.78;;;;;;;;;;4164388;34;20111;-61
2021/01/07 08:56:56;;;;;;;10.63;6.90;;;;;;;;;;4164865;34;20126;-61
2021/01/07 08:59:35;;;;;;;12.02;7.40;;;;;;;;;;4177968;34;20145;-61
2021/01/07 09:02:04;;;;;;;15.35;7.80;;;;;;;;;;4165568;34;20118;-61
2021/01/07 09:04:34;;;;;;;12.48;7.50;;;;;;;;;;4165325;34;20212;-61
2021/01/07 09:07:17;;;;;;;10.07;6.93;;;;;;;;;;4177945;34;20535;-61
2021/01/07 09:09:52;;;;;;;9.13;6.95;;;;;;;;;;4178092;34;20121;-62
2021/01/07 09:12:21;;;;;;;11.20;7.20;;;;;;;;;;4178281;34;20501;-60
2021/01/07 09:15:22;;;;;;;14.15;7.57;;;;;;;;;;4177962;34;20144;-61
2021/01/07 09:17:52;;;;;;;13.30;7.97;;;;;;;;;;4177885;34;20106;-61
2021/01/07 09:20:34;;;;;;;14.02;7.50;;;;;;;;;;4177841;34;20105;-62
2021/01/07 09:23:04;;;;;;;11.63;7.05;;;;;;;;;;4177718;34;20115;-62
2021/01/07 09:25:30;;;;;;;13.18;7.25;;;;;;;;;;4177951;34;20126;-64
2021/01/07 09:27:57;;;;;;;10.32;7.03;;;;;;;;;;4178063;34;20194;-61
2021/01/07 09:30:23;;;;;;;13.07;7.37;;;;;;;;;;4177829;34;20106;-61
2021/01/07 09:32:49;;;;;;;9.93;7.07;;;;;;;;;;4177818;34;20126;-61
2021/01/07 09:35:15;;;;;;;11.27;7.10;;;;;;;;;;4177614;34;20451;-61
2021/01/07 09:37:41;;;;;;;8.73;6.43;;;;;;;;;;4177725;34;20526;-61
2021/01/07 09:40:07;;;;;;;9.90;6.60;;;;;;;;;;4177651;34;20125;-61
2021/01/07 09:42:33;;;;;;;16.52;7.82;;;;;;;;;;4165042;34;20531;-61
2021/01/07 09:45:00;;;;;;;9.13;7.18;;;;;;;;;;4177808;34;20213;-61
2021/01/07 09:47:26;;;;;;;11.32;8.30;;;;;;;;;;4177774;34;20559;-61
2021/01/07 09:49:52;;;;;;;13.02;8.88;;;;;;;;;;4164816;34;20535;-61
2021/01/07 09:52:18;;;;;;;13.57;10.27;;;;;;;;;;4164943;34;20129;-61
2021/01/07 09:54:44;;;;;;;10.98;7.22;;;;;;;;;;4177581;34;20138;-61
2021/01/07 09:57:10;;;;;;;10.50;7.57;;;;;;;;;;4176819;34;20287;-61
2021/01/07 09:59:36;;;;;;;9.85;6.87;;;;;;;;;;4177653;34;20257;-61
2021/01/07 10:02:04;;;;;;;13.10;7.50;;;;;;;;;;4177501;34;20526;-61
2021/01/07 10:04:30;;;;;;;11.65;7.32;;;;;;;;;;4177076;34;20129;-61
2021/01/07 10:06:56;;;;;;;9.48;6.97;;;;;;;;;;4164581;34;20119;-61
2021/01/07 10:09:22;;;;;;;12.18;7.30;;;;;;;;;;4177328;34;20110;-61
2021/01/07 10:11:49;;;;;;;10.25;7.45;;;;;;;;;;4177581;34;20086;-61
2021/01/07 10:14:15;;;;;;;10.55;8.43;;;;;;;;;;4164487;34;20129;-61
2021/01/07 10:16:46;;;;;;;11.00;7.62;;;;;;;;;;4177213;34;20550;-60
2021/01/07 10:19:13;;;;;;;13.95;7.25;;;;;;;;;;4164665;34;20518;-61
2021/01/07 10:21:39;;;;;;;9.80;6.78;;;;;;;;;;4177314;34;20098;-61
2021/01/07 10:24:05;;;;;;;10.77;8.18;;;;;;;;;;4164377;34;20134;-60
2021/01/07 10:26:31;;;;;;;10.77;7.60;;;;;;;;;;4177294;34;20733;-61
2021/01/07 10:28:57;;;;;;;12.82;8.27;;;;;;;;;;4176951;34;20106;-61
2021/01/07 10:31:23;;;;;;;12.55;8.40;;;;;;;;;;4164503;34;20129;-61
2021/01/07 10:33:49;;;;;;;11.48;7.32;;;;;;;;;;4176560;34;20176;-62
2021/01/07 10:36:15;;;;;;;9.98;7.20;;;;;;;;;;4164400;34;20105;-61
2021/01/07 10:38:42;;;;;;;9.43;7.40;;;;;;;;;;4177063;34;20510;-61
2021/01/07 10:41:08;;;;;;;9.52;6.87;;;;;;;;;;4176959;34;20166;-61
2021/01/07 10:43:35;;;;;;;14.15;7.12;;;;;;;;;;4177354;34;20095;-61
2021/01/07 10:46:01;;;;;;;9.13;7.47;;;;;;;;;;4177002;34;20288;-61
2021/01/07 10:48:27;;;;;;;10.10;7.28;;;;;;;;;;4153057;34;20696;-61
2021/01/07 10:50:53;;;;;;;10.73;7.25;;;;;;;;;;4176964;34;20105;-61
2021/01/07 10:53:40;;;;;;;9.23;7.15;;;;;;;;;;4176941;34;20517;-61
2021/01/07 10:56:15;;;;;;;11.73;7.85;;;;;;;;;;4176952;34;20219;-61
2021/01/07 10:58:59;;;;;;;12.87;7.23;;;;;;;;;;4164060;34;20122;-62
2021/01/07 11:01:47;;;;;;;11.55;7.20;;;;;;;;;;4176996;34;20193;-62
2021/01/07 11:04:51;;;;;;;11.40;7.37;;;;;;;;;;4165984;34;20225;-61
2021/01/07 11:07:24;;;;;;;12.15;7.78;;;;;;;;;;4175116;34;20428;-61
2021/01/07 11:09:51;;;;;;;11.25;7.57;;;;;;;;;;4177028;34;20245;-61
2021/01/07 11:12:22;;;;;;;14.50;7.30;;;;;;;;;;4164230;34;20128;-61
2021/01/07 11:15:08;;;;;;;10.63;6.80;;;;;;;;;;4176740;34;20517;-61
2021/01/07 11:17:40;;;;;;;12.63;7.12;;;;;;;;;;4164785;34;20451;-61
2021/01/07 11:20:07;;;;;;;11.65;8.63;;;;;;;;;;4164456;34;20122;-61
2021/01/07 11:22:34;;;;;;;9.25;8.02;;;;;;;;;;4164342;34;20202;-61
2021/01/07 11:25:01;;;;;;;10.82;7.75;;;;;;;;;;4176828;34;20132;-62
2021/01/07 11:27:27;;;;;;;13.05;8.95;;;;;;;;;;4176741;34;20222;-62
2021/01/07 11:29:54;;;;;;;10.65;7.72;;;;;;;;;;4176584;34;20532;-62
2021/01/07 11:32:20;;;;;;;14.30;8.60;;;;;;;;;;4176719;34;20192;-62
2021/01/07 11:34:46;;;;;;;12.15;9.27;;;;;;;;;;4176732;34;20216;-62
2021/01/07 11:37:46;;;;;;;10.07;7.60;;;;;;;;;;4163865;34;20547;-62
2021/01/07 11:40:38;;;;;;;10.75;7.35;;;;;;;;;;4163975;34;20122;-63
2021/01/07 11:43:44;;;;;;;10.50;8.30;;;;;;;;;;4176551;34;20161;-61
2021/01/07 11:46:16;;;;;;;11.23;7.12;;;;;;;;;;4163823;34;20095;-62
2021/01/07 11:48:44;;;;;;;13.20;8.77;;;;;;;;;;4152965;34;20122;-62
2021/01/07 11:51:10;;;;;;;11.18;7.53;;;;;;;;;;4163826;34;20119;-62
2021/01/07 11:53:36;;;;;;;9.27;7.57;;;;;;;;;;4176669;34;20112;-61
2021/01/07 11:56:02;;;;;;;12.35;7.40;;;;;;;;;;4176438;34;20121;-61
2021/01/07 11:58:30;;;;;;;9.30;7.30;;;;;;;;;;4176283;34;20114;-60
2021/01/07 12:00:57;;;;;;;10.35;7.43;;;;;;;;;;4176367;34;20107;-60
2021/01/07 12:03:32;;;;;;;11.52;8.00;;;;;;;;;;4176252;34;20121;-60
2021/01/07 12:06:02;;;;;;;;;;;;;;;;;;4176558;34;20152;-61
2021/01/07 12:09:02;;;;;;;15.35;8.20;;;;;;;;;;4163653;34;19986;-60
2021/01/07 12:11:52;;;;;;;10.00;8.05;;;;;;;;;;4176335;34;20533;-61
2021/01/07 12:14:22;;;;;;;14.80;11.02;;;;;;;;;;4163660;34;20121;-61
2021/01/07 12:16:55;;;;;;;12.40;8.00;;;;;;;;;;4163633;34;20515;-61
2021/01/07 12:19:22;;;;;;;12.37;7.72;;;;;;;;;;4176813;34;20160;-60
2021/01/07 12:21:49;;;;;;;13.02;9.75;;;;;;;;;;4178299;34;20278;-61
2021/01/07 12:24:20;;;;;;;12.93;8.45;;;;;;;;;;4178555;34;20087;-60
2021/01/07 12:26:46;;;;;;;10.32;7.72;;;;;;;;;;4178328;34;20117;-61
2021/01/07 12:29:19;;;;;;;10.55;7.35;;;;;;;;;;4178213;34;20126;-60
2021/01/07 12:31:49;;;;;;;10.13;7.85;;;;;;;;;;4178512;34;20118;-60
2021/01/07 12:35:01;;;;;;;15.05;8.05;;;;;;;;;;4178265;34;20137;-60
2021/01/07 12:37:28;;;;;;;12.55;7.85;;;;;;;;;;4156593;34;20457;-60
2021/01/07 12:40:11;;;;;;;12.98;9.07;;;;;;;;;;4178104;34;20130;-61
2021/01/07 12:42:57;;;;;;;12.65;8.27;;;;;;;;;;4178455;34;20471;-61
2021/01/07 12:45:29;;;;;;;18.83;10.13;;;;;;;;;;4172353;34;20109;-61
2021/01/07 12:47:55;;;;;;;13.13;9.30;;;;;;;;;;4148660;34;20125;-62
2021/01/07 12:50:24;;;;;;;15.32;8.63;;;;;;;;;;4168297;34;20107;-61
2021/01/07 12:52:50;;;;;;;13.40;8.48;;;;;;;;;;4164250;34;20119;-62
2021/01/07 12:55:16;;;;;;;12.35;8.43;;;;;;;;;;4177487;34;20118;-61
2021/01/07 12:58:14;;;;;;;14.32;8.75;;;;;;;;;;4178137;34;20189;-62
2021/01/07 13:01:04;;;;;;;13.55;9.48;;;;;;;;;;4165141;34;20109;-62
2021/01/07 13:03:55;;;;;;;13.68;9.65;;;;;;;;;;4153611;34;20121;-62
2021/01/07 13:06:25;;;;;;;11.95;8.68;;;;;;;;;;4141764;34;20227;-61
2021/01/07 13:08:52;;;;;;;12.68;7.80;;;;;;;;;;4164228;34;20482;-61
2021/01/07 13:11:18;;;;;;;11.60;7.47;;;;;;;;;;4151762;34;20183;-61
2021/01/07 13:13:51;;;;;;;11.43;8.32;;;;;;;;;;4151742;34;20115;-61
2021/01/07 13:16:17;;;;;;;12.75;8.95;;;;;;;;;;4164117;34;20133;-62
2021/01/07 13:18:47;;;;;;;15.02;9.15;;;;;;;;;;4165212;34;20531;-61
2021/01/07 13:21:13;;;;;;;11.55;8.57;;;;;;;;;;4177651;34;20102;-61
2021/01/07 13:23:39;;;;;;;16.75;9.70;;;;;;;;;;4177799;34;20185;-62
2021/01/07 13:26:05;;;;;;;11.95;8.07;;;;;;;;;;4177667;34;20103;-61
2021/01/07 13:28:31;;;;;;;15.27;8.93;;;;;;;;;;4165050;34;20122;-61
2021/01/07 13:30:57;;;;;;;12.18;7.95;;;;;;;;;;4177440;34;20428;-61
2021/01/07 13:33:24;;;;;;;11.55;7.60;;;;;;;;;;4177670;34;20107;-61
2021/01/07 13:35:51;;;;;;;11.88;7.97;;;;;;;;;;4177735;34;20105;-61
2021/01/07 13:38:17;;;;;;;11.43;8.63;;;;;;;;;;4164909;34;20134;-61
2021/01/07 13:40:43;;;;;;;15.88;8.95;;;;;;;;;;4164794;34;20474;-60
2021/01/07 13:43:09;;;;;;;12.68;8.10;;;;;;;;;;4165018;34;20141;-60
2021/01/07 13:45:35;;;;;;;11.10;8.88;;;;;;;;;;4147407;34;20107;-60
2021/01/07 13:48:01;;;;;;;11.57;8.13;;;;;;;;;;4137809;34;20559;-61
2021/01/07 13:50:34;;;;;;;14.75;8.95;;;;;;;;;;4149037;34;20199;-60
2021/01/07 13:53:02;;;;;;;10.90;8.77;;;;;;;;;;4149055;34;20607;-62
2021/01/07 13:55:28;;;;;;;9.60;7.62;;;;;;;;;;4150115;34;20138;-62
2021/01/07 13:57:54;;;;;;;15.65;9.35;;;;;;;;;;4137725;34;20531;-61
2021/01/07 14:00:20;;;;;;;13.60;8.38;;;;;;;;;;4150060;34;20126;-61
2021/01/07 14:02:47;;;;;;;16.58;11.40;;;;;;;;;;4148948;34;20126;-61
2021/01/07 14:05:13;;;;;;;12.68;9.20;;;;;;;;;;4137285;34;20135;-61
2021/01/07 14:07:57;;;;;;;11.85;8.70;;;;;;;;;;4150349;34;20098;-61
2021/01/07 14:10:27;;;;;;;13.50;9.23;;;;;;;;;;4150186;34;20119;-61
2021/01/07 14:12:54;;;;;;;11.45;8.88;;;;;;;;;;4148773;34;20137;-61
2021/01/07 14:15:20;;;;;;;12.20;8.65;;;;;;;;;;4150080;34;20097;-61
2021/01/07 14:17:46;;;;;;;12.65;9.35;;;;;;;;;;4150414;34;20115;-61
2021/01/07 14:20:12;;;;;;;15.32;10.07;;;;;;;;;;4162975;34;20152;-61
2021/01/07 14:22:39;;;;;;;12.35;9.50;;;;;;;;;;4177544;34;20209;-60
2021/01/07 14:25:06;;;;;;;13.02;9.70;;;;;;;;;;4177259;34;20098;-61
2021/01/07 14:27:51;;;;;;;14.70;10.00;;;;;;;;;;4164399;34;20102;-61
2021/01/07 14:30:17;;;;;;;12.27;9.13;;;;;;;;;;4177224;34;20113;-61
2021/01/07 14:32:44;;;;;;;12.82;8.50;;;;;;;;;;4177045;34;20093;-62
2021/01/07 14:35:12;;;;;;;16.90;9.75;;;;;;;;;;4164494;34;20141;-61
2021/01/07 14:37:39;;;;;;;12.73;8.32;;;;;;;;;;4177090;34;20148;-62
2021/01/07 14:40:07;;;;;;;13.60;8.88;;;;;;;;;;4177280;34;20128;-61
2021/01/07 14:42:34;;;;;;;14.43;9.82;;;;;;;;;;4164135;34;20207;-61
2021/01/07 14:45:01;;;;;;;15.65;9.00;;;;;;;;;;4164220;34;20103;-61